Time;durP1;ratioP1;P1;durP2;ratioP2;P2;SDS_P1;SDS_P2;PMS_P1;PMS_P2;Temp;Humidity;BMP_temperature;BMP_pressure;BME280_temperature;BME280_humidity;BME280_pressure;Samples;Min_cycle;Max_cycle;Signal;HPM_P1;HPM_P2
2023/04/21 00:02:14;;;;;;;;;;;11.70;99.90;;;;;;5074243;28;20325;-62
2023/04/21 00:04:40;;;;;;;;;;;11.60;99.90;;;;;;5073946;28;20004;-62
2023/04/21 00:07:07;;;;;;;;;;;11.60;99.90;;;;;;5073904;28;20013;-62
2023/04/21 00:09:32;;;;;;;;;;;11.60;99.90;;;;;;5073467;28;20015;-62
2023/04/21 00:11:58;;;;;;;;;;;11.60;99.90;;;;;;5073761;28;19996;-62
2023/04/21 00:14:23;;;;;;;;;;;11.50;99.90;;;;;;5073885;28;19992;-62
2023/04/21 00:16:51;;;;;;;;;;;11.40;99.90;;;;;;5074160;28;19995;-62
2023/04/21 00:19:17;;;;;;;;;;;11.40;99.90;;;;;;5074019;28;19989;-62
2023/04/21 00:21:43;;;;;;;;;;;11.40;99.90;;;;;;5074165;28;20355;-62
2023/04/21 00:24:08;;;;;;;;;;;11.40;99.90;;;;;;5074019;28;19990;-62
2023/04/21 00:26:34;;;;;;;;;;;11.40;99.90;;;;;;5073383;28;20012;-62
2023/04/21 00:28:59;;;;;;;;;;;11.40;99.90;;;;;;5073735;28;19985;-62
2023/04/21 00:31:25;;;;;;;;;;;11.40;99.90;;;;;;5073967;28;19995;-62
2023/04/21 00:33:50;;;;;;;;;;;11.40;99.90;;;;;;5073613;28;19993;-62
2023/04/21 00:36:16;;;;;;;;;;;11.40;99.90;;;;;;5073494;28;20005;-62
2023/04/21 00:38:41;;;;;;;;;;;11.40;99.90;;;;;;5073443;28;20025;-62
2023/04/21 00:41:07;;;;;;;;;;;11.30;99.90;;;;;;5073366;28;19985;-62
2023/04/21 00:43:32;;;;;;;;;;;11.30;99.90;;;;;;5073727;28;20081;-62
2023/04/21 00:45:58;;;;;;;;;;;11.30;99.90;;;;;;5073572;28;20009;-62
2023/04/21 00:48:24;;;;;;;;;;;11.30;99.90;;;;;;5073486;28;20072;-62
2023/04/21 00:50:49;;;;;;;;;;;11.30;99.90;;;;;;5073420;28;19995;-62
2023/04/21 00:53:15;;;;;;;;;;;11.20;99.90;;;;;;5073411;28;19994;-63
2023/04/21 00:55:41;;;;;;;;;;;11.00;99.90;;;;;;5073324;28;19989;-62
2023/04/21 00:58:06;;;;;;;;;;;11.00;99.90;;;;;;5073564;28;20051;-62
2023/04/21 01:00:32;;;;;;;;;;;11.00;99.90;;;;;;5073682;28;20470;-62
2023/04/21 01:02:59;;;;;;;;;;;11.00;99.90;;;;;;5073396;28;20080;-62
2023/04/21 01:05:25;;;;;;;;;;;10.90;99.90;;;;;;5073289;28;20016;-62
2023/04/21 01:07:50;;;;;;;;;;;10.90;99.90;;;;;;5073187;28;20344;-62
2023/04/21 01:10:16;;;;;;;;;;;10.90;99.90;;;;;;5073379;28;19985;-62
2023/04/21 01:12:45;;;;;;;;;;;10.90;99.90;;;;;;5073538;28;19989;-62
2023/04/21 01:15:12;;;;;;;;;;;10.90;99.90;;;;;;5073293;28;20617;-62
2023/04/21 01:17:37;;;;;;;;;;;10.90;99.90;;;;;;5073269;28;20035;-62
2023/04/21 01:20:10;;;;;;;;;;;10.90;99.90;;;;;;5073382;28;20016;-62
2023/04/21 01:22:40;;;;;;;;;;;10.80;99.90;;;;;;5076882;28;20409;-62
2023/04/21 01:25:06;;;;;;;;;;;10.70;99.90;;;;;;5076896;28;19989;-62
2023/04/21 01:27:32;;;;;;;;;;;10.60;99.90;;;;;;5076892;28;19994;-62
2023/04/21 01:29:57;;;;;;;;;;;10.50;99.90;;;;;;5077073;28;19985;-62
2023/04/21 01:32:25;;;;;;;;;;;10.50;99.90;;;;;;5077202;28;20363;-62
2023/04/21 01:34:51;;;;;;;;;;;10.60;99.90;;;;;;5076713;28;20001;-62
2023/04/21 01:37:18;;;;;;;;;;;10.60;99.90;;;;;;5076362;28;19986;-62
2023/04/21 01:39:44;;;;;;;;;;;10.60;99.90;;;;;;5076788;28;20468;-62
2023/04/21 01:42:11;;;;;;;;;;;10.50;99.90;;;;;;5076578;28;20444;-62
2023/04/21 01:44:36;;;;;;;;;;;10.40;99.90;;;;;;5076949;28;20111;-62
2023/04/21 01:47:02;;;;;;;;;;;10.50;99.90;;;;;;5076492;28;20440;-62
2023/04/21 01:49:28;;;;;;;;;;;10.50;99.90;;;;;;5076588;28;19997;-62
2023/04/21 01:51:53;;;;;;;;;;;10.50;99.90;;;;;;5076201;28;19985;-62
2023/04/21 01:54:19;;;;;;;;;;;10.50;99.90;;;;;;5076963;28;19989;-62
2023/04/21 01:56:45;;;;;;;;;;;10.40;99.90;;;;;;5076734;28;19989;-62
2023/04/21 01:59:10;;;;;;;;;;;10.40;99.90;;;;;;5076287;28;20428;-62
2023/04/21 02:01:36;;;;;;;;;;;10.40;99.90;;;;;;5076603;28;19989;-62
2023/04/21 02:04:02;;;;;;;;;;;10.40;99.90;;;;;;5076420;28;20431;-62
2023/04/21 02:06:28;;;;;;;;;;;10.30;99.90;;;;;;5076160;28;20013;-62
2023/04/21 02:08:54;;;;;;;;;;;10.20;99.90;;;;;;5076489;28;20015;-62
2023/04/21 02:11:19;;;;;;;;;;;10.20;99.90;;;;;;5076285;28;20445;-62
2023/04/21 02:13:45;;;;;;;;;;;10.20;99.90;;;;;;5076010;28;19989;-62
2023/04/21 02:16:11;;;;;;;;;;;10.10;99.90;;;;;;5076218;28;19997;-62
2023/04/21 02:18:38;;;;;;;;;;;10.00;99.90;;;;;;5076337;28;20039;-62
2023/04/21 02:21:04;;;;;;;;;;;10.00;99.90;;;;;;5075848;28;19985;-62
2023/04/21 02:23:30;;;;;;;;;;;10.00;99.90;;;;;;5075910;28;19992;-62
2023/04/21 02:25:56;;;;;;;;;;;10.10;99.90;;;;;;5075909;28;20009;-62
2023/04/21 02:28:21;;;;;;;;;;;10.10;99.90;;;;;;5075937;28;19993;-62
2023/04/21 02:30:47;;;;;;;;;;;10.10;99.90;;;;;;5075514;28;19985;-62
2023/04/21 02:33:12;;;;;;;;;;;10.20;99.90;;;;;;5075886;28;20028;-62
2023/04/21 02:35:38;;;;;;;;;;;10.10;99.90;;;;;;5075445;28;20012;-62
2023/04/21 02:38:07;;;;;;;;;;;10.10;99.90;;;;;;5075401;28;20472;-62
2023/04/21 02:40:33;;;;;;;;;;;10.10;99.90;;;;;;5075630;28;19995;-62
2023/04/21 02:42:59;;;;;;;;;;;10.10;99.90;;;;;;5075597;28;19990;-62
2023/04/21 02:45:24;;;;;;;;;;;10.00;99.90;;;;;;5075628;28;20040;-62
2023/04/21 02:47:50;;;;;;;;;;;10.10;99.90;;;;;;5075527;28;20031;-62
2023/04/21 02:50:16;;;;;;;;;;;10.10;99.90;;;;;;5075182;28;19993;-62
2023/04/21 02:52:41;;;;;;;;;;;10.00;99.90;;;;;;5075353;28;20102;-62
2023/04/21 02:55:07;;;;;;;;;;;9.90;99.90;;;;;;5075351;28;19989;-62
2023/04/21 02:57:32;;;;;;;;;;;9.90;99.90;;;;;;5075273;28;19989;-62
2023/04/21 02:59:58;;;;;;;;;;;9.90;99.90;;;;;;5075322;28;20076;-62
2023/04/21 03:02:24;;;;;;;;;;;9.80;99.90;;;;;;5075369;28;20080;-62
2023/04/21 03:04:50;;;;;;;;;;;9.80;99.90;;;;;;5075244;28;19990;-62
2023/04/21 03:07:15;;;;;;;;;;;9.80;99.90;;;;;;5075000;28;20429;-62
2023/04/21 03:09:41;;;;;;;;;;;9.80;99.90;;;;;;5075010;28;19989;-62
2023/04/21 03:12:06;;;;;;;;;;;9.80;99.90;;;;;;5075084;28;20012;-62
2023/04/21 03:14:32;;;;;;;;;;;9.80;99.90;;;;;;5075029;28;20025;-62
2023/04/21 03:16:58;;;;;;;;;;;9.80;99.90;;;;;;5074763;28;19989;-62
2023/04/21 03:19:23;;;;;;;;;;;9.80;99.90;;;;;;5074654;28;20463;-62
2023/04/21 03:21:49;;;;;;;;;;;9.80;99.90;;;;;;5074813;28;19985;-62
2023/04/21 03:24:14;;;;;;;;;;;9.70;99.90;;;;;;5074807;28;19993;-62
2023/04/21 03:26:40;;;;;;;;;;;9.70;99.90;;;;;;5074576;28;20009;-62
2023/04/21 03:29:06;;;;;;;;;;;9.60;99.90;;;;;;5074951;28;20401;-62
2023/04/21 03:31:31;;;;;;;;;;;9.60;99.90;;;;;;5074567;28;20488;-62
2023/04/21 03:33:57;;;;;;;;;;;9.60;99.90;;;;;;5074282;28;20466;-62
2023/04/21 03:36:22;;;;;;;;;;;9.60;99.90;;;;;;5074482;28;20001;-62
2023/04/21 03:38:48;;;;;;;;;;;9.50;99.90;;;;;;5074363;28;20034;-62
2023/04/21 03:41:13;;;;;;;;;;;9.50;99.90;;;;;;5074384;28;20045;-62
2023/04/21 03:43:39;;;;;;;;;;;9.40;99.90;;;;;;5073893;28;19991;-62
2023/04/21 03:46:05;;;;;;;;;;;9.50;99.90;;;;;;5074226;28;20467;-61
2023/04/21 03:48:30;;;;;;;;;;;9.40;99.90;;;;;;5074120;28;20025;-62
2023/04/21 03:50:56;;;;;;;;;;;9.40;99.90;;;;;;5074361;28;19986;-62
2023/04/21 03:53:22;;;;;;;;;;;9.30;99.90;;;;;;5074152;28;19990;-62
2023/04/21 03:55:50;;;;;;;;;;;9.30;99.90;;;;;;5074216;28;20033;-62
2023/04/21 03:58:16;;;;;;;;;;;9.30;99.90;;;;;;5074423;28;20478;-62
2023/04/21 04:00:41;;;;;;;;;;;9.30;99.90;;;;;;5074218;28;19990;-62
2023/04/21 04:03:07;;;;;;;;;;;9.30;99.90;;;;;;5074114;28;20355;-62
2023/04/21 04:05:34;;;;;;;;;;;9.30;99.90;;;;;;5073852;28;20009;-62
2023/04/21 04:07:59;;;;;;;;;;;9.30;99.90;;;;;;5074051;28;20012;-62
2023/04/21 04:10:25;;;;;;;;;;;9.30;99.90;;;;;;5073942;28;20043;-62
2023/04/21 04:12:51;;;;;;;;;;;9.20;99.90;;;;;;5074139;28;20000;-62
2023/04/21 04:15:16;;;;;;;;;;;9.30;99.90;;;;;;5073918;28;20048;-62
2023/04/21 04:17:42;;;;;;;;;;;9.40;99.90;;;;;;5073741;28;20448;-62
2023/04/21 04:20:07;;;;;;;;;;;9.30;99.90;;;;;;5073744;28;19985;-62
2023/04/21 04:22:33;;;;;;;;;;;9.40;99.90;;;;;;5073790;28;20084;-62
2023/04/21 04:25:00;;;;;;;;;;;9.40;99.90;;;;;;5073871;28;19986;-62
2023/04/21 04:27:26;;;;;;;;;;;9.40;99.90;;;;;;5073880;28;20017;-61
2023/04/21 04:29:52;;;;;;;;;;;9.40;99.90;;;;;;5073752;28;19993;-62
2023/04/21 04:32:17;;;;;;;;;;;9.40;99.90;;;;;;5073527;28;20072;-62
2023/04/21 04:34:43;;;;;;;;;;;9.40;99.90;;;;;;5073535;28;19985;-62
2023/04/21 04:37:10;;;;;;;;;;;9.40;99.90;;;;;;5073273;28;20475;-62
2023/04/21 04:39:36;;;;;;;;;;;9.50;99.90;;;;;;5073625;28;19986;-62
2023/04/21 04:42:02;;;;;;;;;;;9.60;99.90;;;;;;5073625;28;19989;-62
2023/04/21 04:44:28;;;;;;;;;;;9.70;99.90;;;;;;5073500;28;19992;-62
2023/04/21 04:46:53;;;;;;;;;;;9.70;99.90;;;;;;5073308;28;20009;-62
2023/04/21 04:49:19;;;;;;;;;;;9.70;99.90;;;;;;5073469;28;19997;-61
2023/04/21 04:51:45;;;;;;;;;;;9.80;99.90;;;;;;5073434;28;20017;-62
2023/04/21 04:54:10;;;;;;;;;;;9.80;99.90;;;;;;5074082;28;20078;-62
2023/04/21 04:56:36;;;;;;;;;;;9.70;99.90;;;;;;5077820;28;19996;-62
2023/04/21 04:59:02;;;;;;;;;;;9.80;99.90;;;;;;5077524;28;20085;-62
2023/04/21 05:01:29;;;;;;;;;;;9.80;99.90;;;;;;5077447;28;19986;-62
2023/04/21 05:03:55;;;;;;;;;;;9.80;99.90;;;;;;5077547;28;19986;-62
2023/04/21 05:06:21;;;;;;;;;;;9.90;99.90;;;;;;5077326;28;20440;-62
2023/04/21 05:08:46;;;;;;;;;;;9.90;99.90;;;;;;5077638;28;20446;-62
2023/04/21 05:11:12;;;;;;;;;;;10.00;99.90;;;;;;5077326;28;20454;-62
2023/04/21 05:13:37;;;;;;;;;;;10.00;99.90;;;;;;5077242;28;19986;-62
2023/04/21 05:16:03;;;;;;;;;;;10.10;99.90;;;;;;5076991;28;20093;-62
2023/04/21 05:18:28;;;;;;;;;;;10.10;99.90;;;;;;5077155;28;19985;-62
2023/04/21 05:20:55;;;;;;;;;;;10.20;99.90;;;;;;5077135;28;19989;-62
2023/04/21 05:23:20;;;;;;;;;;;10.50;99.90;;;;;;5077039;28;20452;-62
2023/04/21 05:25:46;;;;;;;;;;;10.70;99.90;;;;;;5077001;28;20017;-62
2023/04/21 05:28:12;;;;;;;;;;;10.80;99.90;;;;;;5076983;28;19989;-62
2023/04/21 05:30:37;;;;;;;;;;;10.80;99.90;;;;;;5076662;28;20012;-62
2023/04/21 05:33:03;;;;;;;;;;;10.90;99.90;;;;;;5076836;28;20027;-62
2023/04/21 05:35:32;;;;;;;;;;;11.00;99.90;;;;;;5077104;28;20013;-62
2023/04/21 05:37:57;;;;;;;;;;;11.00;99.90;;;;;;5076608;28;20498;-62
2023/04/21 05:40:23;;;;;;;;;;;11.00;99.90;;;;;;5076728;28;19989;-62
2023/04/21 05:42:49;;;;;;;;;;;11.10;99.90;;;;;;5076800;28;19985;-62
2023/04/21 05:45:14;;;;;;;;;;;11.20;99.90;;;;;;5076397;28;20096;-62
2023/04/21 05:47:40;;;;;;;;;;;11.40;99.90;;;;;;5076589;28;20442;-62
2023/04/21 05:50:05;;;;;;;;;;;11.50;99.90;;;;;;5076519;28;20328;-62
2023/04/21 05:52:31;;;;;;;;;;;11.70;99.90;;;;;;5076565;28;20011;-62
2023/04/21 05:54:58;;;;;;;;;;;11.80;99.90;;;;;;5076368;28;20102;-62
2023/04/21 05:57:24;;;;;;;;;;;11.70;99.90;;;;;;5076478;28;20054;-62
2023/04/21 05:59:49;;;;;;;;;;;11.60;99.90;;;;;;5076221;28;20443;-62
2023/04/21 06:02:15;;;;;;;;;;;11.40;99.90;;;;;;5076533;28;19989;-62
2023/04/21 06:04:40;;;;;;;;;;;11.60;99.90;;;;;;5076335;28;20351;-62
2023/04/21 06:07:07;;;;;;;;;;;11.80;99.90;;;;;;5075405;28;20058;-62
2023/04/21 06:09:33;;;;;;;;;;;12.00;99.90;;;;;;5076219;28;19985;-62
2023/04/21 06:11:59;;;;;;;;;;;12.10;99.90;;;;;;5076494;28;20033;-62
2023/04/21 06:14:25;;;;;;;;;;;12.20;99.90;;;;;;5076023;28;20439;-62
2023/04/21 06:16:50;;;;;;;;;;;12.40;99.90;;;;;;5076101;28;20034;-62
2023/04/21 06:19:16;;;;;;;;;;;12.70;99.90;;;;;;5075971;28;20072;-62
2023/04/21 06:21:41;;;;;;;;;;;13.10;99.90;;;;;;5075978;28;19997;-62
2023/04/21 06:24:08;;;;;;;;;;;13.40;99.90;;;;;;5076036;28;19990;-62
2023/04/21 06:26:33;;;;;;;;;;;13.40;99.90;;;;;;5075761;28;20009;-62
2023/04/21 06:28:59;;;;;;;;;;;14.90;99.90;;;;;;5075687;28;20403;-62
2023/04/21 06:31:25;;;;;;;;;;;17.70;97.30;;;;;;5076239;28;19989;-62
2023/04/21 06:33:50;;;;;;;;;;;19.30;78.10;;;;;;5076014;28;19990;-62
2023/04/21 06:36:16;;;;;;;;;;;21.60;61.90;;;;;;5076139;28;20005;-62
2023/04/21 06:38:42;;;;;;;;;;;23.10;55.20;;;;;;5075582;28;20028;-62
2023/04/21 06:41:08;;;;;;;;;;;24.60;51.50;;;;;;5075569;28;19996;-62
2023/04/21 06:43:33;;;;;;;;;;;25.90;47.90;;;;;;5075391;28;20030;-62
2023/04/21 06:45:59;;;;;;;;;;;26.60;46.10;;;;;;5075610;28;20009;-62
2023/04/21 06:48:25;;;;;;;;;;;27.20;44.60;;;;;;5075432;28;19989;-62
2023/04/21 06:50:51;;;;;;;;;;;27.60;42.30;;;;;;5075403;28;19992;-62
2023/04/21 06:53:17;;;;;;;;;;;27.80;41.90;;;;;;5075378;28;19992;-62
2023/04/21 06:55:42;;;;;;;;;;;28.50;41.60;;;;;;5075423;28;19985;-62
2023/04/21 06:58:08;;;;;;;;;;;29.10;39.90;;;;;;5075329;28;19989;-62
2023/04/21 07:00:33;;;;;;;;;;;29.50;39.30;;;;;;5075519;28;19989;-62
2023/04/21 07:02:59;;;;;;;;;;;29.80;37.50;;;;;;5075266;28;20401;-62
2023/04/21 07:05:24;;;;;;;;;;;29.90;39.00;;;;;;5075317;28;20012;-62
2023/04/21 07:07:50;;;;;;;;;;;30.30;37.10;;;;;;5075223;28;20075;-62
2023/04/21 07:10:18;;;;;;;;;;;30.50;37.90;;;;;;5075153;28;19985;-62
2023/04/21 07:12:44;;;;;;;;;;;30.90;36.40;;;;;;5074756;28;20386;-62
2023/04/21 07:15:10;;;;;;;;;;;30.70;35.60;;;;;;5075007;28;20411;-62
2023/04/21 07:17:36;;;;;;;;;;;30.50;37.40;;;;;;5074116;28;19989;-62
2023/04/21 07:20:02;;;;;;;;;;;30.20;37.20;;;;;;5074487;28;20084;-62
2023/04/21 07:22:28;;;;;;;;;;;29.50;36.50;;;;;;5075105;28;19985;-62
2023/04/21 07:24:53;;;;;;;;;;;27.80;37.70;;;;;;5074672;28;19986;-62
2023/04/21 07:27:19;;;;;;;;;;;27.30;39.30;;;;;;5074717;28;20016;-62
2023/04/21 07:29:44;;;;;;;;;;;28.80;39.00;;;;;;5074625;28;20076;-62
2023/04/21 07:32:10;;;;;;;;;;;30.10;39.60;;;;;;5074635;28;19985;-63
2023/04/21 07:34:35;;;;;;;;;;;30.80;36.80;;;;;;5074556;28;20034;-62
2023/04/21 07:37:01;;;;;;;;;;;31.20;37.30;;;;;;5074404;28;20000;-62
2023/04/21 07:39:27;;;;;;;;;;;31.20;36.10;;;;;;5074380;28;20028;-62
2023/04/21 07:41:52;;;;;;;;;;;31.10;35.60;;;;;;5074278;28;20021;-62
2023/04/21 07:44:18;;;;;;;;;;;31.30;36.90;;;;;;5074267;28;19985;-62
2023/04/21 07:46:44;;;;;;;;;;;32.00;36.20;;;;;;5074412;28;20083;-62
2023/04/21 07:49:09;;;;;;;;;;;32.40;34.20;;;;;;5074608;28;19990;-62
2023/04/21 07:51:35;;;;;;;;;;;31.90;35.50;;;;;;5074313;28;20392;-62
2023/04/21 07:54:00;;;;;;;;;;;32.30;34.80;;;;;;5074157;28;20516;-63
2023/04/21 07:56:26;;;;;;;;;;;32.70;33.90;;;;;;5074294;28;19989;-62
2023/04/21 07:58:52;;;;;;;;;;;32.70;33.90;;;;;;5074214;28;19990;-62
2023/04/21 08:01:17;;;;;;;;;;;33.10;33.80;;;;;;5074044;28;19996;-62
2023/04/21 08:03:43;;;;;;;;;;;33.20;35.00;;;;;;5074061;28;19993;-62
2023/04/21 08:06:08;;;;;;;;;;;33.20;36.00;;;;;;5074018;28;20009;-62
2023/04/21 08:08:34;;;;;;;;;;;33.10;33.00;;;;;;5074210;28;20066;-63
2023/04/21 08:11:00;;;;;;;;;;;33.10;34.30;;;;;;5073852;28;20461;-62
2023/04/21 08:13:25;;;;;;;;;;;33.40;33.90;;;;;;5074239;28;19989;-62
2023/04/21 08:15:51;;;;;;;;;;;33.10;35.20;;;;;;5073869;28;19995;-62
2023/04/21 08:18:17;;;;;;;;;;;33.20;34.60;;;;;;5073989;28;20031;-62
2023/04/21 08:20:43;;;;;;;;;;;33.10;34.00;;;;;;5073925;28;20035;-62
2023/04/21 08:23:09;;;;;;;;;;;33.00;35.50;;;;;;5073677;28;19985;-62
2023/04/21 08:25:35;;;;;;;;;;;33.40;33.80;;;;;;5073984;28;20037;-62
2023/04/21 08:28:00;;;;;;;;;;;33.70;33.90;;;;;;5073739;28;19989;-63
2023/04/21 08:30:27;;;;;;;;;;;33.20;36.30;;;;;;5073516;28;19989;-62
2023/04/21 08:32:52;;;;;;;;;;;33.10;35.70;;;;;;5073683;28;20130;-63
2023/04/21 08:35:18;;;;;;;;;;;33.20;34.80;;;;;;5073742;28;20044;-63
2023/04/21 08:37:44;;;;;;;;;;;32.90;34.30;;;;;;5073229;28;20030;-63
2023/04/21 08:40:10;;;;;;;;;;;32.40;34.30;;;;;;5073580;28;19985;-63
2023/04/21 08:42:36;;;;;;;;;;;32.40;35.00;;;;;;5073718;28;20351;-63
2023/04/21 08:45:02;;;;;;;;;;;32.40;34.20;;;;;;5073673;28;20443;-63
2023/04/21 08:47:28;;;;;;;;;;;32.50;34.40;;;;;;5073479;28;20108;-63
2023/04/21 08:49:55;;;;;;;;;;;31.90;35.80;;;;;;5073803;28;20081;-62
2023/04/21 08:52:21;;;;;;;;;;;31.80;36.10;;;;;;5073322;28;20462;-62
2023/04/21 08:54:50;;;;;;;;;;;31.50;35.60;;;;;;5073745;28;19989;-63
2023/04/21 08:57:16;;;;;;;;;;;31.20;36.50;;;;;;5073767;28;19993;-63
2023/04/21 08:59:42;;;;;;;;;;;31.10;37.40;;;;;;5073536;28;20439;-63
2023/04/21 09:02:08;;;;;;;;;;;31.10;37.00;;;;;;5073354;28;20359;-62
2023/04/21 09:04:34;;;;;;;;;;;29.90;38.10;;;;;;5073435;28;19989;-62
2023/04/21 09:07:00;;;;;;;;;;;29.50;37.80;;;;;;5073115;28;20009;-63
2023/04/21 09:09:26;;;;;;;;;;;30.00;38.30;;;;;;5073379;28;20504;-63
2023/04/21 09:11:56;;;;;;;;;;;30.50;38.90;;;;;;5073188;28;20107;-63
2023/04/21 09:14:21;;;;;;;;;;;30.40;39.30;;;;;;5073312;28;19989;-63
2023/04/21 09:16:58;;;;;;;;;;;29.70;39.20;;;;;;5073305;28;20336;-62
2023/04/21 09:19:25;;;;;;;;;;;28.60;39.30;;;;;;5073249;28;19985;-63
2023/04/21 09:21:51;;;;;;;;;;;27.30;40.40;;;;;;5073344;28;20046;-62
2023/04/21 09:24:16;;;;;;;;;;;26.20;42.30;;;;;;5073178;28;20456;-63
2023/04/21 09:26:42;;;;;;;;;;;25.40;43.50;;;;;;5073174;28;20542;-63
2023/04/21 09:29:07;;;;;;;;;;;24.80;43.60;;;;;;5073225;28;20355;-62
2023/04/21 09:31:34;;;;;;;;;;;24.20;45.30;;;;;;5073071;28;19985;-62
2023/04/21 09:34:00;;;;;;;;;;;23.90;46.20;;;;;;5073114;28;19986;-63
2023/04/21 09:36:29;;;;;;;;;;;23.70;46.90;;;;;;5072836;28;20008;-62
2023/04/21 09:38:59;;;;;;;;;;;23.40;47.50;;;;;;5072917;28;20028;-62
2023/04/21 09:41:24;;;;;;;;;;;23.20;46.40;;;;;;5073818;28;20080;-62
2023/04/21 09:43:50;;;;;;;;;;;23.10;47.90;;;;;;5076741;28;20028;-63
2023/04/21 09:46:16;;;;;;;;;;;22.80;47.70;;;;;;5076566;28;20009;-62
2023/04/21 09:48:43;;;;;;;;;;;22.30;48.40;;;;;;5076551;28;20396;-62
2023/04/21 09:51:10;;;;;;;;;;;22.10;50.10;;;;;;5076680;28;19996;-63
2023/04/21 09:53:37;;;;;;;;;;;22.20;47.60;;;;;;5076596;28;19985;-63
2023/04/21 09:56:03;;;;;;;;;;;22.30;47.40;;;;;;5076395;28;20007;-62
2023/04/21 09:58:31;;;;;;;;;;;22.50;47.60;;;;;;5076664;28;19988;-62
2023/04/21 10:00:57;;;;;;;;;;;22.80;47.20;;;;;;5076693;28;20382;-63
2023/04/21 10:03:25;;;;;;;;;;;22.90;46.10;;;;;;5076239;28;19989;-62
2023/04/21 10:05:51;;;;;;;;;;;23.10;44.70;;;;;;5076352;28;20384;-62
2023/04/21 10:08:17;;;;;;;;;;;23.10;44.30;;;;;;5076290;28;20034;-62
2023/04/21 10:10:44;;;;;;;;;;;23.50;43.80;;;;;;5076096;28;19993;-62
2023/04/21 10:13:14;;;;;;;;;;;23.70;43.20;;;;;;5076494;28;19990;-62
2023/04/21 10:15:40;;;;;;;;;;;23.70;43.90;;;;;;5076112;28;19989;-62
2023/04/21 10:18:15;;;;;;;;;;;23.40;44.40;;;;;;5076008;28;19986;-62
2023/04/21 10:20:49;;;;;;;;;;;23.40;42.90;;;;;;5075852;28;19992;-62
2023/04/21 10:23:28;;;;;;;;;;;23.50;43.20;;;;;;5075869;28;19989;-62
2023/04/21 10:25:59;;;;;;;;;;;23.70;42.90;;;;;;5075938;28;20344;-62
2023/04/21 10:28:37;;;;;;;;;;;23.60;44.50;;;;;;5075926;28;20094;-62
2023/04/21 10:31:16;;;;;;;;;;;23.60;44.10;;;;;;5075889;28;19986;-62
2023/04/21 10:33:41;;;;;;;;;;;23.60;42.00;;;;;;5075790;28;19988;-62
2023/04/21 10:36:10;;;;;;;;;;;23.70;43.10;;;;;;5075933;28;20482;-62
2023/04/21 10:38:40;;;;;;;;;;;24.30;45.90;;;;;;5075663;28;20115;-62
2023/04/21 10:41:24;;;;;;;;;;;25.20;42.40;;;;;;5075645;28;19986;-62
2023/04/21 10:43:50;;;;;;;;;;;25.50;44.30;;;;;;5075554;28;19993;-62
2023/04/21 10:46:34;;;;;;;;;;;24.70;40.40;;;;;;5075541;28;20143;-62
2023/04/21 10:49:04;;;;;;;;;;;24.30;41.60;;;;;;5075448;28;19993;-62
2023/04/21 10:51:31;;;;;;;;;;;24.10;42.60;;;;;;5075528;28;19992;-62
2023/04/21 10:53:57;;;;;;;;;;;24.20;43.80;;;;;;5075094;28;19989;-62
2023/04/21 10:56:23;;;;;;;;;;;24.10;42.20;;;;;;5075447;28;19993;-62
2023/04/21 10:58:50;;;;;;;;;;;23.80;42.70;;;;;;5075398;28;19985;-62
2023/04/21 11:01:16;;;;;;;;;;;23.70;41.40;;;;;;5075185;28;19989;-62
2023/04/21 11:03:42;;;;;;;;;;;23.60;43.80;;;;;;5075344;28;19994;-62
2023/04/21 11:06:14;;;;;;;;;;;23.50;42.50;;;;;;5075202;28;20009;-62
2023/04/21 11:08:56;;;;;;;;;;;23.30;42.20;;;;;;5075022;28;20084;-62
2023/04/21 11:11:23;;;;;;;;;;;23.30;43.50;;;;;;5075079;28;19989;-62
2023/04/21 11:13:48;;;;;;;;;;;23.20;42.70;;;;;;5074969;28;19986;-62
2023/04/21 11:16:14;;;;;;;;;;;23.20;43.50;;;;;;5075029;28;20088;-62
2023/04/21 11:18:40;;;;;;;;;;;22.90;43.00;;;;;;5074954;28;20407;-62
2023/04/21 11:21:21;;;;;;;;;;;22.70;43.90;;;;;;5074791;28;20477;-62
2023/04/21 11:23:48;;;;;;;;;;;22.50;44.90;;;;;;5074838;28;19992;-62
2023/04/21 11:26:14;;;;;;;;;;;22.20;45.30;;;;;;5074646;28;20119;-62
2023/04/21 11:28:40;;;;;;;;;;;22.10;45.30;;;;;;5074675;28;20424;-62
2023/04/21 11:31:06;;;;;;;;;;;21.80;46.10;;;;;;5074682;28;19986;-63
2023/04/21 11:33:35;;;;;;;;;;;21.50;46.00;;;;;;5074389;28;20039;-63
2023/04/21 11:36:07;;;;;;;;;;;21.00;47.50;;;;;;5074458;28;20113;-63
2023/04/21 11:38:37;;;;;;;;;;;21.20;47.50;;;;;;5074465;28;20028;-63
2023/04/21 11:41:03;;;;;;;;;;;21.50;47.30;;;;;;5074444;28;19986;-63
2023/04/21 11:43:29;;;;;;;;;;;21.70;46.20;;;;;;5074377;28;20024;-63
2023/04/21 11:45:54;;;;;;;;;;;21.90;46.70;;;;;;5074291;28;20061;-63
2023/04/21 11:48:20;;;;;;;;;;;22.00;46.10;;;;;;5074180;28;19993;-62
2023/04/21 11:50:46;;;;;;;;;;;21.90;45.90;;;;;;5074233;28;20102;-62
2023/04/21 11:53:13;;;;;;;;;;;22.00;45.80;;;;;;5074236;28;19993;-63
2023/04/21 11:55:41;;;;;;;;;;;21.80;45.50;;;;;;5074229;28;20015;-62
2023/04/21 11:58:06;;;;;;;;;;;21.30;45.80;;;;;;5074407;28;19995;-63
2023/04/21 12:00:32;;;;;;;;;;;21.10;46.20;;;;;;5074331;28;19989;-63
2023/04/21 12:02:57;;;;;;;;;;;21.10;46.40;;;;;;5073995;28;20035;-63
2023/04/21 12:05:23;;;;;;;;;;;21.40;45.50;;;;;;5073645;28;19996;-62
2023/04/21 12:07:51;;;;;;;;;;;21.90;45.30;;;;;;5073938;28;20013;-63
2023/04/21 12:10:20;;;;;;;;;;;22.30;44.40;;;;;;5074138;28;19985;-63
2023/04/21 12:12:46;;;;;;;;;;;23.20;43.60;;;;;;5073889;28;19985;-63
2023/04/21 12:15:15;;;;;;;;;;;23.50;44.70;;;;;;5073897;28;20446;-63
2023/04/21 12:17:44;;;;;;;;;;;23.50;42.90;;;;;;5074059;28;19994;-63
2023/04/21 12:20:10;;;;;;;;;;;23.20;45.10;;;;;;5073879;28;20031;-63
2023/04/21 12:22:35;;;;;;;;;;;23.40;44.60;;;;;;5074138;28;20444;-63
2023/04/21 12:25:01;;;;;;;;;;;24.00;42.20;;;;;;5073671;28;20451;-63
2023/04/21 12:27:26;;;;;;;;;;;24.60;43.80;;;;;;5073676;28;20009;-63
2023/04/21 12:29:52;;;;;;;;;;;24.80;41.10;;;;;;5073756;28;20474;-63
2023/04/21 12:32:19;;;;;;;;;;;24.80;40.00;;;;;;5073869;28;20105;-63
2023/04/21 12:34:44;;;;;;;;;;;25.00;40.60;;;;;;5073634;28;20378;-62
2023/04/21 12:37:10;;;;;;;;;;;25.10;41.20;;;;;;5073795;28;20095;-63
2023/04/21 12:39:35;;;;;;;;;;;25.40;40.00;;;;;;5072508;28;20463;-63
2023/04/21 12:42:01;;;;;;;;;;;25.80;40.20;;;;;;5073675;28;20011;-63
2023/04/21 12:44:27;;;;;;;;;;;25.90;40.00;;;;;;5073569;28;19992;-63
2023/04/21 12:46:52;;;;;;;;;;;25.10;41.00;;;;;;5073327;28;20013;-63
2023/04/21 12:49:18;;;;;;;;;;;24.70;39.80;;;;;;5073600;28;19985;-63
2023/04/21 12:51:44;;;;;;;;;;;24.00;41.40;;;;;;5073700;28;19989;-63
2023/04/21 12:54:10;;;;;;;;;;;23.60;41.60;;;;;;5073781;28;20012;-63
2023/04/21 12:56:38;;;;;;;;;;;23.70;44.30;;;;;;5073471;28;19989;-63
2023/04/21 12:59:04;;;;;;;;;;;23.90;44.50;;;;;;5073385;28;20012;-63
2023/04/21 13:01:29;;;;;;;;;;;24.00;42.60;;;;;;5073199;28;19989;-63
2023/04/21 13:03:55;;;;;;;;;;;24.00;41.50;;;;;;5073631;28;19996;-63
2023/04/21 13:06:20;;;;;;;;;;;24.00;40.40;;;;;;5073250;28;20009;-63
2023/04/21 13:08:46;;;;;;;;;;;23.90;39.70;;;;;;5073347;28;20447;-63
2023/04/21 13:11:12;;;;;;;;;;;23.90;40.00;;;;;;5073463;28;20127;-63
2023/04/21 13:13:38;;;;;;;;;;;23.80;41.70;;;;;;5073647;28;20072;-63
2023/04/21 13:16:04;;;;;;;;;;;23.60;38.60;;;;;;5075005;28;19985;-63
2023/04/21 13:18:29;;;;;;;;;;;23.40;40.80;;;;;;5077355;28;19985;-63
2023/04/21 13:20:55;;;;;;;;;;;23.40;39.90;;;;;;5077482;28;19996;-63
2023/04/21 13:23:21;;;;;;;;;;;23.40;41.20;;;;;;5077119;28;20388;-63
2023/04/21 13:25:46;;;;;;;;;;;23.40;40.90;;;;;;5077140;28;20054;-63
2023/04/21 13:28:15;;;;;;;;;;;23.40;39.40;;;;;;5077121;28;19986;-62
2023/04/21 13:30:41;;;;;;;;;;;23.50;41.30;;;;;;5076700;28;19987;-63
2023/04/21 13:33:06;;;;;;;;;;;23.60;39.10;;;;;;5076995;28;19992;-63
2023/04/21 13:35:32;;;;;;;;;;;23.60;38.70;;;;;;5076831;28;20001;-63
2023/04/21 13:37:57;;;;;;;;;;;23.60;37.90;;;;;;5076801;28;20507;-62
2023/04/21 13:40:23;;;;;;;;;;;23.60;38.90;;;;;;5076802;28;20359;-63
2023/04/21 13:42:49;;;;;;;;;;;23.40;39.50;;;;;;5076738;28;20377;-63
2023/04/21 13:45:14;;;;;;;;;;;23.50;41.60;;;;;;5076536;28;19990;-63
2023/04/21 13:47:40;;;;;;;;;;;23.50;43.00;;;;;;5076736;28;20013;-63
2023/04/21 13:50:06;;;;;;;;;;;23.50;41.00;;;;;;5076659;28;19985;-63
2023/04/21 13:52:33;;;;;;;;;;;23.50;41.70;;;;;;5076792;28;19993;-63
2023/04/21 13:54:59;;;;;;;;;;;23.50;40.50;;;;;;5076785;28;20444;-63
2023/04/21 13:57:24;;;;;;;;;;;23.50;41.30;;;;;;5076523;28;19985;-63
2023/04/21 13:59:50;;;;;;;;;;;23.50;40.40;;;;;;5076313;28;20031;-62
2023/04/21 14:02:16;;;;;;;;;;;23.50;41.20;;;;;;5076329;28;19992;-63
2023/04/21 14:04:42;;;;;;;;;;;23.50;39.70;;;;;;5076324;28;20455;-63
2023/04/21 14:07:07;;;;;;;;;;;23.40;41.00;;;;;;5076283;28;20009;-63
2023/04/21 14:09:33;;;;;;;;;;;23.40;40.50;;;;;;5076539;28;19989;-63
2023/04/21 14:12:00;;;;;;;;;;;23.60;38.30;;;;;;5076271;28;20084;-63
2023/04/21 14:14:25;;;;;;;;;;;24.10;38.90;;;;;;5076246;28;20021;-62